地図

経路データ

SID SEASON NUMBER BASIN SUBBASIN NAME ISO_TIME NATURE LAT LON WMO_WIND WMO_PRES WMO_AGENCY TRACK_TYPE DIST2LAND LANDFALL IFLAG USA_AGENCY USA_ATCF_ID USA_LAT USA_LON USA_RECORD USA_STATUS USA_WIND USA_PRES USA_SSHS USA_R34_NE USA_R34_SE USA_R34_SW USA_R34_NW USA_R50_NE USA_R50_SE USA_R50_SW USA_R50_NW USA_R64_NE USA_R64_SE USA_R64_SW USA_R64_NW USA_POCI USA_ROCI USA_RMW USA_EYE TOKYO_LAT TOKYO_LON TOKYO_GRADE TOKYO_WIND TOKYO_PRES TOKYO_R50_DIR TOKYO_R50_LONG TOKYO_R50_SHORT TOKYO_R30_DIR TOKYO_R30_LONG TOKYO_R30_SHORT TOKYO_LAND CMA_LAT CMA_LON CMA_CAT CMA_WIND CMA_PRES HKO_LAT HKO_LON HKO_CAT HKO_WIND HKO_PRES NEWDELHI_LAT NEWDELHI_LON NEWDELHI_GRADE NEWDELHI_WIND NEWDELHI_PRES NEWDELHI_CI NEWDELHI_DP NEWDELHI_POCI REUNION_LAT REUNION_LON REUNION_TYPE REUNION_WIND REUNION_PRES REUNION_TNUM REUNION_CI REUNION_RMW REUNION_R34_NE REUNION_R34_SE REUNION_R34_SW REUNION_R34_NW REUNION_R50_NE REUNION_R50_SE REUNION_R50_SW REUNION_R50_NW REUNION_R64_NE REUNION_R64_SE REUNION_R64_SW REUNION_R64_NW BOM_LAT BOM_LON BOM_TYPE BOM_WIND BOM_PRES BOM_TNUM BOM_CI BOM_RMW BOM_R34_NE BOM_R34_SE BOM_R34_SW BOM_R34_NW BOM_R50_NE BOM_R50_SE BOM_R50_SW BOM_R50_NW BOM_R64_NE BOM_R64_SE BOM_R64_SW BOM_R64_NW BOM_ROCI BOM_POCI BOM_EYE BOM_POS_METHOD BOM_PRES_METHOD NADI_LAT NADI_LON NADI_CAT NADI_WIND NADI_PRES WELLINGTON_LAT WELLINGTON_LON WELLINGTON_WIND WELLINGTON_PRES DS824_LAT DS824_LON DS824_STAGE DS824_WIND DS824_PRES TD9636_LAT TD9636_LON TD9636_STAGE TD9636_WIND TD9636_PRES TD9635_LAT TD9635_LON TD9635_WIND TD9635_PRES TD9635_ROCI NEUMANN_LAT NEUMANN_LON NEUMANN_CLASS NEUMANN_WIND NEUMANN_PRES MLC_LAT MLC_LON MLC_CLASS MLC_WIND MLC_PRES USA_GUST BOM_GUST BOM_GUST_PER REUNION_GUST REUNION_GUST_PER USA_SEAHGT USA_SEARAD_NE USA_SEARAD_SE USA_SEARAD_SW USA_SEARAD_NW STORM_SPEED STORM_DIR
1993316N09177 1993 87 WP MM NOT_NAMED 1993-11-12 06:00:00 NR 8.50000 177.000 main 2610 2595 O_____________ jtwc_wp WP331993 8.50000 177.000 15 -1 4 273
1993316N09177 1993 87 WP MM NOT_NAMED 1993-11-12 09:00:00 NR 8.51003 176.798 main 2595 2579 P_____________ WP331993 8.51003 176.798 15 -1 4 270
1993316N09177 1993 87 WP MM NOT_NAMED 1993-11-12 12:00:00 NR 8.50000 176.600 main 2579 2564 O_____________ jtwc_wp WP331993 8.50000 176.600 15 -1 4 262
1993316N09177 1993 87 WP MM NOT_NAMED 1993-11-12 15:00:00 NR 8.45748 176.408 main 2564 2541 P_____________ WP331993 8.45748 176.408 15 -1 4 256
1993316N09177 1993 87 WP MM NOT_NAMED 1993-11-12 18:00:00 NR 8.40000 176.200 main 2541 2518 O_____________ jtwc_wp WP331993 8.40000 176.200 15 -1 5 255
1993316N09177 1993 87 WP MM NOT_NAMED 1993-11-12 21:00:00 NR 8.34248 175.965 main 2518 2496 P_____________ WP331993 8.34248 175.965 15 -1 5 259
1993316N09177 1993 87 WP MM NOT_NAMED 1993-11-13 00:00:00 NR 8.30000 175.700 main 2496 2474 O_____________ jtwc_wp WP331993 8.30000 175.700 15 -1 6 265
1993316N09177 1993 87 WP MM NOT_NAMED 1993-11-13 03:00:00 NR 8.29255 175.370 main 2474 2452 P_____________ WP331993 8.29255 175.370 15 -1 6 270
1993316N09177 1993 87 WP MM NOT_NAMED 1993-11-13 06:00:00 NR 8.30000 175.100 main 2452 2445 O_____________ jtwc_wp WP331993 8.30000 175.100 15 -1 4 271
1993316N09177 1993 87 WP MM NOT_NAMED 1993-11-13 09:00:00 NR 8.29996 175.013 main 2445 2445 P_____________ WP331993 8.29996 175.013 15 -1 1 270
1993316N09177 1993 87 WP MM NOT_NAMED 1993-11-13 12:00:00 NR 8.30000 175.000 main 2445 2445 O_____________ jtwc_wp WP331993 8.30000 175.000 15 -1 1 270
1993316N09177 1993 87 WP MM NOT_NAMED 1993-11-13 15:00:00 NR 8.30000 174.950 main 2445 2438 P_____________ WP331993 8.30000 174.950 15 -1 1 270
1993316N09177 1993 87 WP MM NOT_NAMED 1993-11-13 18:00:00 NR 8.30000 174.900 main 2438 2438 O_____________ jtwc_wp WP331993 8.30000 174.900 15 -1 1 270
1993316N09177 1993 87 WP MM NOT_NAMED 1993-11-13 21:00:00 NR 8.30000 174.850 main 2438 2431 P_____________ WP331993 8.30000 174.850 15 -1 1 270
1993316N09177 1993 87 WP MM NOT_NAMED 1993-11-14 00:00:00 NR 8.30000 174.800 main 2431 2431 O_____________ jtwc_wp WP331993 8.30000 174.800 15 -1 1 265
1993316N09177 1993 87 WP MM NOT_NAMED 1993-11-14 03:00:00 NR 8.29250 174.758 main 2431 2424 P_____________ WP331993 8.29250 174.758 15 -1 1 270
1993316N09177 1993 87 WP MM NOT_NAMED 1993-11-14 06:00:00 NR 8.30000 174.700 main 2424 2417 O_____________ jtwc_wp WP331993 8.30000 174.700 15 -1 2 288
1993316N09177 1993 87 WP MM NOT_NAMED 1993-11-14 09:00:00 NR 8.34250 174.608 main 2417 2417 P_____________ WP331993 8.34250 174.608 15 -1 2 297
1993316N09177 1993 87 WP MM NOT_NAMED 1993-11-14 12:00:00 NR 8.40000 174.500 main 2419 2412 O_____________ jtwc_wp WP331993 8.40000 174.500 15 -1 2 296
1993316N09177 1993 87 WP MM NOT_NAMED 1993-11-14 15:00:00 NR 8.44250 174.400 main 2412 2412 P_____________ WP331993 8.44250 174.400 15 -1 2 297
1993316N09177 1993 87 WP MM NOT_NAMED 1993-11-14 18:00:00 NR 8.50000 174.300 main 2414 2407 O_____________ jtwc_wp WP331993 8.50000 174.300 15 -1 2 307
1993316N09177 1993 87 WP MM NOT_NAMED 1993-11-14 21:00:00 NR 8.59250 174.200 main 2415 2409 P_____________ WP331993 8.59250 174.200 15 -1 3 315
1993316N09177 1993 87 WP MM NOT_NAMED 1993-11-15 00:00:00 NR 8.70000 174.100 main 2417 2417 O_____________ jtwc_wp WP331993 8.70000 174.100 15 -1 3 320
1993316N09177 1993 87 WP MM NOT_NAMED 1993-11-15 03:00:00 NR 8.79246 174.030 main 2420 2420 P_____________ WP331993 8.79246 174.030 15 -1 3 315
1993316N09177 1993 87 WP MM NOT_NAMED 1993-11-15 06:00:00 NR 8.90000 173.900 main 2422 2415 O_____________ jtwc_wp WP331993 8.90000 173.900 15 -1 4 304
1993316N09177 1993 87 WP MM NOT_NAMED 1993-11-15 09:00:00 NR 9.04244 173.660 main 2418 2407 P_____________ WP331993 9.04244 173.660 15 -1 7 297
1993316N09177 1993 87 WP MM NOT_NAMED 1993-11-15 12:00:00 NR 9.20000 173.300 main 2410 2394 O_____________ jtwc_wp WP331993 9.20000 173.300 15 -1 9 291
1993316N09177 1993 87 WP MM NOT_NAMED 1993-11-15 15:00:00 NR 9.34993 172.852 main 2394 2376 P_____________ WP331993 9.34993 172.852 15 -1 10 287
1993316N09177 1993 87 WP MM NOT_NAMED 1993-11-15 18:00:00 NR 9.50000 172.300 main 2376 2351 O_____________ jtwc_wp WP331993 9.50000 172.300 15 -1 12 285
1993316N09177 1993 87 WP MM NOT_NAMED 1993-11-15 21:00:00 NR 9.64995 171.680 main 2351 2331 P_____________ WP331993 9.64995 171.680 15 -1 13 283
1993316N09177 1993 87 WP MM NOT_NAMED 1993-11-16 00:00:00 NR 9.80000 171.000 main 2331 2310 O_____________ jtwc_wp WP331993 9.80000 171.000 15 -1 14 282
1993316N09177 1993 87 WP MM NOT_NAMED 1993-11-16 03:00:00 NR 9.93485 170.315 main 2304 2290 P_____________ WP331993 9.93485 170.315 17 -1 14 282
1993316N09177 1993 87 WP MM NOT_NAMED 1993-11-16 06:00:00 NR 10.1000 169.600 main 2290 2277 O_____________ jtwc_wp WP331993 10.1000 169.600 20 -1 15 285
1993316N09177 1993 87 WP MM NOT_NAMED 1993-11-16 09:00:00 NR 10.3350 168.843 main 2275 2272 P_____________ WP331993 10.3350 168.843 20 -1 16 289
1993316N09177 1993 87 WP MM NOT_NAMED 1993-11-16 12:00:00 NR 10.6000 168.100 main 2277 2272 O_____________ jtwc_wp WP331993 10.6000 168.100 20 -1 15 291
1993316N09177 1993 87 WP MM NOT_NAMED 1993-11-16 15:00:00 NR 10.8799 167.413 main 2282 2276 P_____________ WP331993 10.8799 167.413 20 -1 14 291
1993316N09177 1993 87 WP MM NOT_NAMED 1993-11-16 18:00:00 NR 11.1000 166.800 main 2276 2254 O_____________ jtwc_wp WP331993 11.1000 166.800 20 -1 11 285
1993316N09177 1993 87 WP MM NOT_NAMED 1993-11-16 21:00:00 NR 11.1722 166.300 main 2254 2221 P_____________ WP331993 11.1722 166.300 20 -1 10 276
1993316N09177 1993 87 WP MM NOT_NAMED 1993-11-17 00:00:00 NR 11.2000 165.800 main 2221 2187 O_____________ jtwc_wp WP331993 11.2000 165.800 20 -1 11 275
1993316N09177 1993 87 WP MM NOT_NAMED 1993-11-17 03:00:00 NR 11.2776 165.157 main 2187 2148 P_____________ WP331993 11.2776 165.157 20 -1 13 279
1993316N09177 1993 87 WP MM NOT_NAMED 1993-11-17 06:00:00 NR 11.4000 164.500 main 2148 2124 O_____________ jtwc_wp WP331993 11.4000 164.500 20 -1 12 283
1993316N09177 1993 87 WP MM NOT_NAMED 1993-11-17 09:00:00 NR 11.5474 163.927 main 2117 2108 P_____________ WP331993 11.5474 163.927 20 -1 12 290
1993316N09177 1993 87 WP MM NOT_NAMED 1993-11-17 12:00:00 NR 11.8000 163.400 main 2110 2102 O_____________ jtwc_wp WP331993 11.8000 163.400 20 -1 12 302
1993316N09177 1993 87 WP MM NOT_NAMED 1993-11-17 15:00:00 NR 12.1975 162.863 main 2114 2107 P_____________ WP331993 12.1975 162.863 20 -1 13 313
1993316N09177 1993 87 WP MM NOT_NAMED 1993-11-17 18:00:00 NR 12.7000 162.400 main 2129 2129 O_____________ jtwc_wp WP331993 12.7000 162.400 20 -1 13 324
1993316N09177 1993 87 WP MM NOT_NAMED 1993-11-17 21:00:00 NR 13.2649 162.055 main 2168 2163 P_____________ WP331993 13.2649 162.055 20 -1 13 332
1993316N09177 1993 87 WP MM NOT_NAMED 1993-11-18 00:00:00 NR 13.8000 161.800 main 2198 2198 O_____________ jtwc_wp WP331993 13.8000 161.800 20 -1 10 335
1993316N09177 1993 87 WP MM NOT_NAMED 1993-11-18 03:00:00 NR 14.2099 161.607 main 2225 2225 P_____________ WP331993 14.2099 161.607 22 -1 8 331
1993316N09177 1993 87 WP MM NOT_NAMED 1993-11-18 06:00:00 NR 14.5000 161.400 main 2244 2238 O_____________ jtwc_wp WP331993 14.5000 161.400 25 -1 7 314
1993316N09177 1993 87 WP MM NOT_NAMED 1993-11-18 09:00:00 NR 14.6799 161.102 main 2247 2237 P_____________ WP331993 14.6799 161.102 25 -1 7 294
1993316N09177 1993 87 WP MM NOT_NAMED 1993-11-18 12:00:00 NR 14.8000 160.700 main 2237 2227 O_____________ jtwc_wp WP331993 14.8000 160.700 25 -1 9 288
1993316N09177 1993 87 WP MM NOT_NAMED 1993-11-18 15:00:00 NR 14.9649 160.203 main 2232 2212 P_____________ WP331993 14.9649 160.203 25 -1 11 286
1993316N09177 1993 87 WP MM NOT_NAMED 1993-11-18 18:00:00 NR 15.1000 159.600 main 2212 2193 O_____________ jtwc_wp WP331993 15.1000 159.600 25 -1 13 279
1993316N09177 1993 87 WP MM NOT_NAMED 1993-11-18 21:00:00 NR 15.1650 158.922 main 2190 2160 P_____________ WP331993 15.1650 158.922 25 -1 14 274
1993316N09177 1993 87 WP MM NOT_NAMED 1993-11-19 00:00:00 NR 15.2000 158.200 main 2160 2133 O_____________ jtwc_wp WP331993 15.2000 158.200 25 -1 14 273
1993316N09177 1993 87 WP MM NOT_NAMED 1993-11-19 03:00:00 NR 15.2453 157.493 main 2133 2118 P_____________ WP331993 15.2453 157.493 22 -1 14 274
1993316N09177 1993 87 WP MM NOT_NAMED 1993-11-19 06:00:00 NR 15.3000 156.800 main 2118 O_____________ jtwc_wp WP331993 15.3000 156.800 20 -1 13 275

デジタル台風データ・検索

IBTrACS Databaseについて

本データベースは、米国NOAAが公開する1842年以降の世界の熱帯低気圧のベストトラックデータアーカイブInternational Best Track Archive for Climate Stewardship (IBTrACS)を、ウェブで閲覧しやすい形式に変換したものです。

最終更新日:2021-12-03